MSC Lisbon — A8LL9 — position and weather

sailwx.info

Track history (hours):
 
Tides and Currents Weather Stations Pressure Air Temp Water Temp Dewpoint Dewpoint Depression Visibility Wind Speed Wind Dir Waves Ship Positions

MSC Lisbon

Last reported at 2016-Jul-02 03:33 UTC. Time now 2016-Jul-02 04:00 UTC.
Position N 39°01' E 003°35'.

Length 336.7 m; beam 45.6 m; draft 15.3 m.

Type: Ship (hazmat cat A). MMSI: 636091276.

Date/timePositionNaut miles runAvg speedWind from/ knotsBaromVisibWave heightAir tempDewpointWater temp
2016-Jul-02 03:33N 39°01' E 003°35'1515.2
2016-Jul-02 02:33N 38°59' E 003°54'1514.8
2016-Jul-02 01:33N 38°58' E 004°13'1514.5
2016-Jul-02 00:33N 38°57' E 004°32'1514.7
2016-Jul-01 23:33N 38°56' E 004°51'2114.7
2016-Jul-01 22:07N 38°55' E 005°18'1414.8
2016-Jul-01 21:10N 38°54' E 005°36'1515.3
2016-Jul-01 20:13N 38°52' E 005°54'19215.1
2016-Jul-01 07:28N 38°20' E 009°57'4415.3
2016-Jul-01 04:33N 38°06' E 010°51'3715.4
2016-Jul-01 02:10N 37°51' E 011°33'2515.5
2016-Jul-01 00:32N 37°41' E 012°02'1614.9
2016-Jun-30 23:26N 37°34' E 012°21'2915.6
2016-Jun-30 21:33N 37°20' E 012°54'1616.0
2016-Jun-30 20:33N 37°13' E 013°11'1616.1
2016-Jun-30 19:33N 37°05' E 013°29'1615.8
2016-Jun-30 18:34N 36°59' E 013°47'1615.6
2016-Jun-30 17:33N 36°52' E 014°05'1515.4
2016-Jun-30 16:33N 36°45' E 014°22'1615.5
2016-Jun-30 15:33N 36°39' E 014°40'1615.6
2016-Jun-30 14:34N 36°35' E 014°58'1515.5
2016-Jun-30 13:33N 36°31' E 015°17'1515.3
2016-Jun-30 12:33N 36°28' E 015°36'1615.5
2016-Jun-30 11:33N 36°25' E 015°55'1615.6
2016-Jun-30 10:33N 36°21' E 016°14'1616.1
2016-Jun-30 09:33N 36°18' E 016°33'1616.3
2016-Jun-30 08:33N 36°15' E 016°53'1716.5
2016-Jun-30 07:33N 36°11' E 017°13'66316.2
2016-Jun-28 14:31N 33°45' E 030°22'22315.7
2016-Jun-28 00:19N 32°56' E 034°42'1215.8
2016-Jun-27 23:33N 32°53' E 034°56'5 5.1
2016-Jun-27 22:33N 32°49' E 035°01'0 0.0
2016-Jun-27 21:33N 32°49' E 035°01'0 0.0
2016-Jun-27 20:33N 32°49' E 035°01'0 0.0
2016-Jun-27 19:33N 32°49' E 035°01'0 0.0
2016-Jun-27 18:33N 32°49' E 035°01'0 0.0
2016-Jun-27 17:33N 32°49' E 035°01'0 0.0
2016-Jun-27 16:33N 32°49' E 035°01'0 0.0
2016-Jun-27 15:32N 32°49' E 035°01'0 0.0
2016-Jun-27 14:32N 32°49' E 035°01'0 0.0
2016-Jun-27 13:32N 32°49' E 035°01'0 0.0
2016-Jun-27 12:32N 32°49' E 035°01'0 0.0
2016-Jun-27 11:32N 32°49' E 035°01'0 0.0
2016-Jun-27 10:32N 32°49' E 035°01'0 0.0
2016-Jun-27 09:32N 32°49' E 035°01'0 0.0
2016-Jun-27 08:32N 32°49' E 035°01'0 0.0
2016-Jun-27 07:32N 32°49' E 035°01'0 0.0
2016-Jun-27 06:32N 32°49' E 035°01'0 0.0
2016-Jun-27 05:32N 32°49' E 035°01'0 0.0
2016-Jun-27 04:32N 32°49' E 035°01'0 0.0
2016-Jun-27 03:32N 32°49' E 035°01'0 0.0
2016-Jun-27 02:32N 32°49' E 035°01'1 1.2
2016-Jun-27 01:33N 32°50' E 035°01'6 5.8
2016-Jun-27 00:33N 32°53' E 034°55'1717.0
2016-Jun-26 23:33N 32°56' E 034°35'2019.8
2016-Jun-26 22:34N 32°59' E 034°12'1818.0
2016-Jun-26 21:33N 32°54' E 033°52'2020.1
2016-Jun-26 20:33N 32°39' E 033°36'2020.3
2016-Jun-26 19:34N 32°23' E 033°21'2020.2
2016-Jun-26 18:34N 32°07' E 033°06'2020.1
2016-Jun-26 17:34N 31°52' E 032°51'2019.9
2016-Jun-26 16:34N 31°40' E 032°32'1817.7
2016-Jun-26 15:34N 31°24' E 032°24'1212.3
2016-Jun-26 14:33N 31°12' E 032°20'8 7.7
2016-Jun-26 13:33N 31°04' E 032°19'8 8.4
2016-Jun-26 12:33N 30°56' E 032°19'68 4.8
2016-Jun-25 22:28N 29°49' E 032°35'0 0.0
2016-Jun-25 21:31N 29°49' E 032°35'  
Track history (hours):
 
Tides and Currents Weather Stations Pressure Air Temp Water Temp Dewpoint Dewpoint Depression Visibility Wind Speed Wind Dir Waves Ship Positions

MSC Lisbon

Last reported at 2016-Jul-02 03:33 UTC. Time now 2016-Jul-02 04:00 UTC.
Position N 39°01' E 003°35'.

Length 336.7 m; beam 45.6 m; draft 15.3 m.

Type: Ship (hazmat cat A). MMSI: 636091276.

Date/timePositionNaut miles runAvg speedWind from/ knotsBaromVisibWave heightAir tempDewpointWater temp
2016-Jul-02 03:33N 39°01' E 003°35'1515.2
2016-Jul-02 02:33N 38°59' E 003°54'1514.8
2016-Jul-02 01:33N 38°58' E 004°13'1514.5
2016-Jul-02 00:33N 38°57' E 004°32'1514.7
2016-Jul-01 23:33N 38°56' E 004°51'2114.7
2016-Jul-01 22:07N 38°55' E 005°18'1414.8
2016-Jul-01 21:10N 38°54' E 005°36'1515.3
2016-Jul-01 20:13N 38°52' E 005°54'19215.1
2016-Jul-01 07:28N 38°20' E 009°57'4415.3
2016-Jul-01 04:33N 38°06' E 010°51'3715.4
2016-Jul-01 02:10N 37°51' E 011°33'2515.5
2016-Jul-01 00:32N 37°41' E 012°02'1614.9
2016-Jun-30 23:26N 37°34' E 012°21'2915.6
2016-Jun-30 21:33N 37°20' E 012°54'1616.0
2016-Jun-30 20:33N 37°13' E 013°11'1616.1
2016-Jun-30 19:33N 37°05' E 013°29'1615.8
2016-Jun-30 18:34N 36°59' E 013°47'1615.6
2016-Jun-30 17:33N 36°52' E 014°05'1515.4
2016-Jun-30 16:33N 36°45' E 014°22'1615.5
2016-Jun-30 15:33N 36°39' E 014°40'1615.6
2016-Jun-30 14:34N 36°35' E 014°58'1515.5
2016-Jun-30 13:33N 36°31' E 015°17'1515.3
2016-Jun-30 12:33N 36°28' E 015°36'1615.5
2016-Jun-30 11:33N 36°25' E 015°55'1615.6
2016-Jun-30 10:33N 36°21' E 016°14'1616.1
2016-Jun-30 09:33N 36°18' E 016°33'1616.3
2016-Jun-30 08:33N 36°15' E 016°53'1716.5
2016-Jun-30 07:33N 36°11' E 017°13'66316.2
2016-Jun-28 14:31N 33°45' E 030°22'22315.7
2016-Jun-28 00:19N 32°56' E 034°42'1215.8
2016-Jun-27 23:33N 32°53' E 034°56'5 5.1
2016-Jun-27 22:33N 32°49' E 035°01'0 0.0
2016-Jun-27 21:33N 32°49' E 035°01'0 0.0
2016-Jun-27 20:33N 32°49' E 035°01'0 0.0
2016-Jun-27 19:33N 32°49' E 035°01'0 0.0
2016-Jun-27 18:33N 32°49' E 035°01'0 0.0
2016-Jun-27 17:33N 32°49' E 035°01'0 0.0
2016-Jun-27 16:33N 32°49' E 035°01'0 0.0
2016-Jun-27 15:32N 32°49' E 035°01'0 0.0
2016-Jun-27 14:32N 32°49' E 035°01'0 0.0
2016-Jun-27 13:32N 32°49' E 035°01'0 0.0
2016-Jun-27 12:32N 32°49' E 035°01'0 0.0
2016-Jun-27 11:32N 32°49' E 035°01'0 0.0
2016-Jun-27 10:32N 32°49' E 035°01'0 0.0
2016-Jun-27 09:32N 32°49' E 035°01'0 0.0
2016-Jun-27 08:32N 32°49' E 035°01'0 0.0
2016-Jun-27 07:32N 32°49' E 035°01'0 0.0
2016-Jun-27 06:32N 32°49' E 035°01'0 0.0
2016-Jun-27 05:32N 32°49' E 035°01'0 0.0
2016-Jun-27 04:32N 32°49' E 035°01'0 0.0
2016-Jun-27 03:32N 32°49' E 035°01'0 0.0
2016-Jun-27 02:32N 32°49' E 035°01'1 1.2
2016-Jun-27 01:33N 32°50' E 035°01'6 5.8
2016-Jun-27 00:33N 32°53' E 034°55'1717.0
2016-Jun-26 23:33N 32°56' E 034°35'2019.8
2016-Jun-26 22:34N 32°59' E 034°12'1818.0
2016-Jun-26 21:33N 32°54' E 033°52'2020.1
2016-Jun-26 20:33N 32°39' E 033°36'2020.3
2016-Jun-26 19:34N 32°23' E 033°21'2020.2
2016-Jun-26 18:34N 32°07' E 033°06'2020.1
2016-Jun-26 17:34N 31°52' E 032°51'2019.9
2016-Jun-26 16:34N 31°40' E 032°32'1817.7
2016-Jun-26 15:34N 31°24' E 032°24'1212.3
2016-Jun-26 14:33N 31°12' E 032°20'8 7.7
2016-Jun-26 13:33N 31°04' E 032°19'8 8.4
2016-Jun-26 12:33N 30°56' E 032°19'68 4.8
2016-Jun-25 22:28N 29°49' E 032°35'0 0.0
2016-Jun-25 21:31N 29°49' E 032°35'  

Dump ship's entire track history